createdAt,value
2023-05-21T00:01:55.868Z,43.64
2023-05-21T00:04:25.602Z,43.42
2023-05-21T00:06:55.806Z,43.53
2023-05-21T00:09:24.140Z,43.43
2023-05-21T00:11:52.123Z,43.24
2023-05-21T00:14:20.780Z,43.53
2023-05-21T00:16:48.955Z,43.52
2023-05-21T00:19:17.251Z,43.22
2023-05-21T00:21:46.033Z,43.26
2023-05-21T00:24:15.806Z,43.69
2023-05-21T00:26:43.853Z,43.29
2023-05-21T00:29:11.862Z,43.57
2023-05-21T00:31:39.958Z,43.71
2023-05-21T00:34:08.114Z,43.34
2023-05-21T00:36:36.080Z,43.59
2023-05-21T00:39:04.736Z,43.44
2023-05-21T00:41:35.434Z,43.76
2023-05-21T00:44:03.461Z,43.68
2023-05-21T00:46:31.573Z,43.43
2023-05-21T00:48:59.914Z,43.55
2023-05-21T00:51:30.627Z,43.30
2023-05-21T00:53:58.692Z,43.46
2023-05-21T00:56:27.966Z,43.77
2023-05-21T00:58:58.400Z,43.75
2023-05-21T01:01:26.812Z,43.35
2023-05-21T01:03:57.733Z,43.64
2023-05-21T01:06:25.871Z,43.55
2023-05-21T01:08:53.920Z,43.72
2023-05-21T01:11:22.122Z,43.54
2023-05-21T01:13:50.086Z,43.34
2023-05-21T01:16:19.565Z,43.62
2023-05-21T01:18:47.974Z,43.57
2023-05-21T01:21:17.485Z,43.50
2023-05-21T01:23:46.894Z,43.46
2023-05-21T01:26:15.993Z,43.35
2023-05-21T01:28:44.110Z,43.48
2023-05-21T01:31:26.076Z,43.41
2023-05-21T01:33:54.287Z,43.56
2023-05-21T01:36:24.401Z,43.65
2023-05-21T01:38:57.136Z,43.30
2023-05-21T01:41:25.124Z,43.41
2023-05-21T01:43:53.094Z,43.45
2023-05-21T01:46:23.118Z,43.45
2023-05-21T01:48:51.182Z,43.40
2023-05-21T01:51:19.152Z,43.55
2023-05-21T01:53:47.105Z,43.51
2023-05-21T01:56:16.571Z,43.60
2023-05-21T01:58:45.411Z,43.55
2023-05-21T02:01:13.487Z,43.76
2023-05-21T02:03:41.484Z,43.57
2023-05-21T02:06:09.570Z,43.54
2023-05-21T02:08:38.559Z,43.73
2023-05-21T02:11:06.636Z,43.81
2023-05-21T02:13:40.708Z,43.72
2023-05-21T02:16:13.111Z,43.88
2023-05-21T02:18:42.287Z,43.78
2023-05-21T02:21:10.712Z,43.78
2023-05-21T02:23:38.835Z,43.82
2023-05-21T02:26:06.823Z,43.88
2023-05-21T02:28:37.212Z,43.63
2023-05-21T02:31:05.191Z,43.94
2023-05-21T02:33:33.214Z,43.57
2023-05-21T02:36:01.163Z,43.55
2023-05-21T02:38:29.145Z,43.85
2023-05-21T02:40:57.179Z,43.84
2023-05-21T02:43:25.133Z,43.59
2023-05-21T02:45:54.514Z,43.62
2023-05-21T02:48:22.522Z,43.58
2023-05-21T02:50:50.539Z,43.52
2023-05-21T02:53:18.632Z,43.56
2023-05-21T02:55:46.627Z,43.84
2023-05-21T02:58:15.658Z,43.68
2023-05-21T03:00:43.596Z,43.93
2023-05-21T03:03:13.713Z,43.60
2023-05-21T03:05:41.746Z,43.56
2023-05-21T03:08:09.790Z,43.92
2023-05-21T03:10:37.808Z,43.68
2023-05-21T03:13:09.498Z,43.66
2023-05-21T03:15:39.464Z,43.99
2023-05-21T03:18:07.728Z,43.58
2023-05-21T03:20:43.672Z,43.57
2023-05-21T03:23:15.712Z,43.90
2023-05-21T03:25:46.134Z,43.78
2023-05-21T03:28:14.338Z,43.89
2023-05-21T03:30:46.455Z,43.79
2023-05-21T03:33:15.659Z,43.86
2023-05-21T03:35:45.126Z,43.63
2023-05-21T03:38:13.104Z,44.01
2023-05-21T03:40:41.123Z,43.68
2023-05-21T03:43:09.306Z,43.72
2023-05-21T03:45:37.513Z,43.90
2023-05-21T03:48:06.699Z,43.74
2023-05-21T03:50:35.927Z,44.08
2023-05-21T03:53:05.340Z,43.84
2023-05-21T03:55:33.390Z,43.99
2023-05-21T03:58:01.381Z,43.83
2023-05-21T04:00:29.444Z,44.13
2023-05-21T04:02:57.733Z,44.05
2023-05-21T04:05:25.848Z,43.97
2023-05-21T04:07:54.263Z,44.17
2023-05-21T04:10:41.706Z,43.76
2023-05-21T04:13:09.777Z,44.21
2023-05-21T04:15:38.847Z,43.87
2023-05-21T04:18:07.400Z,44.30
2023-05-21T04:20:35.458Z,44.13
2023-05-21T04:23:03.577Z,44.23
2023-05-21T04:25:32.935Z,43.99
2023-05-21T04:28:01.091Z,43.97
2023-05-21T04:30:29.047Z,44.05
2023-05-21T04:32:58.082Z,44.06
2023-05-21T04:35:26.168Z,44.15
2023-05-21T04:37:55.058Z,43.99
2023-05-21T04:40:24.618Z,44.41
2023-05-21T04:42:54.090Z,44.27
2023-05-21T04:45:24.747Z,44.36
2023-05-21T04:47:52.833Z,44.16
2023-05-21T04:50:21.537Z,43.96
2023-05-21T04:52:49.514Z,44.28
2023-05-21T04:55:19.138Z,44.11
2023-05-21T04:57:47.003Z,44.27
2023-05-21T05:00:17.785Z,44.04
2023-05-21T05:02:45.819Z,44.15
2023-05-21T05:05:13.869Z,44.41
2023-05-21T05:07:41.969Z,44.34
2023-05-21T05:10:10.165Z,44.46
2023-05-21T05:12:38.241Z,44.29
2023-05-21T05:15:06.934Z,44.40
2023-05-21T05:17:36.353Z,44.36
2023-05-21T05:20:05.169Z,44.07
2023-05-21T05:22:33.242Z,44.39
2023-05-21T05:25:01.315Z,44.34
2023-05-21T05:27:29.382Z,44.23
2023-05-21T05:29:57.311Z,44.28
2023-05-21T05:32:25.294Z,44.07
2023-05-21T05:34:54.603Z,44.21
2023-05-21T05:37:22.721Z,44.41
2023-05-21T05:39:50.706Z,44.34
2023-05-21T05:42:18.680Z,44.38
2023-05-21T05:44:46.658Z,44.45
2023-05-21T05:47:14.714Z,44.39
2023-05-21T05:49:42.804Z,44.45
2023-05-21T05:52:12.280Z,44.15
2023-05-21T05:54:40.317Z,44.09
2023-05-21T05:57:08.344Z,44.50
2023-05-21T05:59:36.413Z,44.13
2023-05-21T06:02:04.436Z,44.39
2023-05-21T06:04:32.467Z,44.36
2023-05-21T06:07:01.276Z,44.45
2023-05-21T06:09:30.807Z,44.62
2023-05-21T06:11:58.822Z,44.62
2023-05-21T06:14:26.850Z,44.30
2023-05-21T06:16:54.912Z,44.45
2023-05-21T06:19:22.989Z,44.41
2023-05-21T06:21:51.360Z,44.33
2023-05-21T06:24:19.304Z,44.33
2023-05-21T06:26:48.563Z,44.47
2023-05-21T06:29:17.104Z,44.39
2023-05-21T06:31:45.632Z,44.43
2023-05-21T06:34:13.694Z,44.44
2023-05-21T06:36:41.738Z,44.42
2023-05-21T06:39:10.350Z,43.96
2023-05-21T06:41:38.367Z,44.12
2023-05-21T06:44:07.751Z,44.23
2023-05-21T06:46:36.424Z,44.11
2023-05-21T06:49:07.006Z,44.11
2023-05-21T06:51:35.161Z,43.85
2023-05-21T06:54:03.123Z,44.03
2023-05-21T06:56:31.476Z,43.83
2023-05-21T06:58:59.430Z,43.71
2023-05-21T07:01:28.871Z,43.76
2023-05-21T07:03:57.361Z,43.71
2023-05-21T07:06:25.318Z,43.70
2023-05-21T07:08:53.388Z,43.58
2023-05-21T07:11:21.795Z,43.79
2023-05-21T07:13:49.758Z,43.71
2023-05-21T07:16:18.179Z,43.42
2023-05-21T07:18:47.592Z,43.80
2023-05-21T07:21:17.188Z,43.70
2023-05-21T07:23:45.107Z,43.54
2023-05-21T07:26:13.013Z,43.39
2023-05-21T07:28:42.856Z,43.48
2023-05-21T07:31:12.209Z,43.56
2023-05-21T07:33:41.018Z,43.54
2023-05-21T07:36:10.566Z,43.30
2023-05-21T07:38:40.400Z,43.13
2023-05-21T07:41:08.472Z,43.16
2023-05-21T07:43:37.006Z,43.30
2023-05-21T07:46:05.742Z,43.37
2023-05-21T07:48:35.456Z,43.00
2023-05-21T07:51:05.777Z,43.20
2023-05-21T07:53:35.057Z,42.70
2023-05-21T07:56:03.055Z,42.90
2023-05-21T07:58:31.884Z,43.06
2023-05-21T08:00:59.884Z,42.78
2023-05-21T08:03:29.134Z,42.76
2023-05-21T08:05:57.276Z,42.73
2023-05-21T08:08:25.339Z,42.74
2023-05-21T08:10:55.354Z,43.05
2023-05-21T08:13:23.335Z,42.69
2023-05-21T08:15:53.118Z,42.96
2023-05-21T08:18:24.005Z,42.49
2023-05-21T08:20:52.856Z,42.48
2023-05-21T08:23:20.870Z,42.69
2023-05-21T08:25:48.876Z,42.54
2023-05-21T08:28:18.924Z,42.32
2023-05-21T08:30:47.271Z,42.80
2023-05-21T08:33:17.985Z,42.69
2023-05-21T08:35:47.486Z,42.37
2023-05-21T08:38:17.647Z,42.56
2023-05-21T08:40:46.874Z,42.34
2023-05-21T08:43:16.535Z,42.21
2023-05-21T08:45:47.375Z,42.63
2023-05-21T08:48:16.115Z,42.41
2023-05-21T08:50:44.787Z,42.48
2023-05-21T08:53:24.145Z,42.29
2023-05-21T08:55:56.434Z,42.26
2023-05-21T08:58:24.381Z,42.18
2023-05-21T09:00:53.802Z,42.34
2023-05-21T09:03:23.078Z,42.47
2023-05-21T09:05:51.819Z,42.49
2023-05-21T09:08:21.794Z,42.38
2023-05-21T09:10:52.900Z,42.13
2023-05-21T09:13:21.906Z,42.59
2023-05-21T09:15:49.897Z,42.33
2023-05-21T09:18:20.032Z,42.33
2023-05-21T09:20:48.066Z,42.24
2023-05-21T09:23:18.200Z,42.40
2023-05-21T09:25:47.427Z,42.59
2023-05-21T09:28:15.857Z,42.27
2023-05-21T09:30:47.597Z,42.37
2023-05-21T09:33:26.958Z,42.09
2023-05-21T09:35:55.861Z,42.35
2023-05-21T09:38:23.876Z,42.19
2023-05-21T09:40:51.913Z,42.02
2023-05-21T09:43:20.652Z,42.33
2023-05-21T09:45:52.131Z,41.97
2023-05-21T09:48:36.553Z,42.18
2023-05-21T09:51:14.727Z,41.90
2023-05-21T09:53:50.561Z,42.02
2023-05-21T09:56:22.367Z,41.95
2023-05-21T09:58:51.278Z,41.88
2023-05-21T10:01:22.231Z,42.17
2023-05-21T10:03:55.596Z,42.04
2023-05-21T10:06:24.254Z,42.03
2023-05-21T10:08:53.749Z,41.82
2023-05-21T10:11:23.601Z,41.89
2023-05-21T10:13:54.460Z,42.11
2023-05-21T10:16:23.149Z,41.96
2023-05-21T10:18:54.323Z,42.01
2023-05-21T10:21:24.589Z,42.06
2023-05-21T10:23:52.574Z,41.67
2023-05-21T10:26:21.601Z,41.92
2023-05-21T10:28:50.773Z,41.79
2023-05-21T10:31:18.733Z,41.85
2023-05-21T10:33:47.320Z,41.81
2023-05-21T10:36:16.915Z,41.69
2023-05-21T10:38:44.849Z,41.46
2023-05-21T10:41:13.868Z,41.74
2023-05-21T10:43:50.606Z,41.75
2023-05-21T10:46:42.284Z,41.82
2023-05-21T10:49:22.705Z,41.57
2023-05-21T10:51:56.542Z,41.62
2023-05-21T10:54:47.370Z,41.64
2023-05-21T10:57:20.897Z,41.46
2023-05-21T10:59:48.823Z,41.65
2023-05-21T11:02:17.631Z,41.33
2023-05-21T11:04:46.111Z,41.18
2023-05-21T11:07:16.715Z,41.51
2023-05-21T11:09:48.014Z,41.45
2023-05-21T11:12:18.774Z,41.17
2023-05-21T11:14:57.555Z,41.40
2023-05-21T11:17:39.094Z,41.04
2023-05-21T11:20:10.622Z,40.97
2023-05-21T11:22:40.849Z,41.17
2023-05-21T11:25:09.745Z,40.95
2023-05-21T11:27:38.077Z,41.23
2023-05-21T11:30:08.960Z,40.81
2023-05-21T11:32:40.835Z,41.11
2023-05-21T11:35:10.158Z,40.87
2023-05-21T11:37:41.880Z,41.09
2023-05-21T11:40:32.069Z,40.62
2023-05-21T11:43:00.158Z,40.75
2023-05-21T11:45:33.986Z,40.74
2023-05-21T11:48:03.684Z,40.58
2023-05-21T11:50:34.376Z,40.46
2023-05-21T11:53:03.899Z,40.68
2023-05-21T11:55:33.134Z,40.74
2023-05-21T11:58:03.111Z,40.57
2023-05-21T12:00:31.228Z,40.86
2023-05-21T12:03:00.731Z,40.51
2023-05-21T12:05:28.771Z,40.68
2023-05-21T12:07:58.515Z,40.62
2023-05-21T12:10:28.784Z,40.75
2023-05-21T12:12:57.776Z,40.55
2023-05-21T12:15:28.198Z,40.42
2023-05-21T12:17:56.885Z,40.42
2023-05-21T12:20:27.827Z,40.65
2023-05-21T12:22:55.840Z,40.29
2023-05-21T12:25:23.880Z,40.26
2023-05-21T12:27:59.152Z,40.31
2023-05-21T12:30:27.253Z,40.29
2023-05-21T12:32:55.759Z,40.17
2023-05-21T12:35:24.197Z,40.15
2023-05-21T12:37:52.791Z,39.91
2023-05-21T12:40:21.535Z,40.05
2023-05-21T12:42:49.597Z,40.01
2023-05-21T12:45:21.828Z,40.02
2023-05-21T12:47:56.063Z,39.86
2023-05-21T12:50:24.989Z,39.47
2023-05-21T12:52:56.032Z,39.67
2023-05-21T12:55:27.131Z,39.73
2023-05-21T12:58:05.176Z,39.66
2023-05-21T13:00:37.674Z,39.61
2023-05-21T13:03:06.752Z,39.57
2023-05-21T13:05:35.044Z,39.63
2023-05-21T13:08:06.088Z,39.50
2023-05-21T13:10:35.188Z,39.32
2023-05-21T13:13:06.220Z,39.41
2023-05-21T13:15:35.615Z,39.51
2023-05-21T13:18:04.132Z,39.39
2023-05-21T13:20:32.941Z,39.12
2023-05-21T13:25:31.085Z,39.12
2023-05-21T13:28:02.062Z,39.53
2023-05-21T13:30:30.130Z,39.30
2023-05-21T13:32:59.967Z,39.27
2023-05-21T13:35:28.167Z,39.27
2023-05-21T13:37:56.468Z,38.99
2023-05-21T13:40:24.579Z,39.15
2023-05-21T13:42:52.484Z,39.04
2023-05-21T13:45:21.955Z,39.21
2023-05-21T13:47:50.132Z,38.99
2023-05-21T13:50:20.328Z,38.90
2023-05-21T13:52:48.306Z,38.96
2023-05-21T13:55:16.873Z,38.92
2023-05-21T13:57:47.242Z,38.91
2023-05-21T14:00:16.136Z,38.67
2023-05-21T14:02:45.853Z,38.69
2023-05-21T14:05:14.096Z,38.70
2023-05-21T14:07:43.582Z,38.73
2023-05-21T14:10:12.928Z,38.75
2023-05-21T14:12:41.194Z,38.79
2023-05-21T14:15:10.593Z,38.51
2023-05-21T14:17:40.497Z,38.76
2023-05-21T14:20:10.062Z,38.60
2023-05-21T14:22:39.228Z,38.53
2023-05-21T14:25:09.192Z,38.56
2023-05-21T14:27:39.187Z,38.36
2023-05-21T14:30:08.442Z,38.49
2023-05-21T14:32:37.942Z,38.30
2023-05-21T14:35:07.680Z,38.17
2023-05-21T14:37:35.761Z,38.30
2023-05-21T14:40:06.356Z,38.29
2023-05-21T14:42:36.025Z,38.11
2023-05-21T14:45:17.484Z,38.42
2023-05-21T14:47:48.353Z,38.29
2023-05-21T14:50:17.562Z,38.10
2023-05-21T14:52:46.391Z,38.04
2023-05-21T14:55:16.576Z,38.03
2023-05-21T14:57:47.270Z,38.16
2023-05-21T15:00:15.678Z,37.88
2023-05-21T15:02:43.875Z,38.09
2023-05-21T15:05:12.747Z,37.91
2023-05-21T15:07:40.800Z,38.12
2023-05-21T15:10:10.918Z,38.28
2023-05-21T15:12:39.696Z,37.89
2023-05-21T15:15:10.004Z,37.76
2023-05-21T15:17:38.763Z,37.67
2023-05-21T15:20:07.913Z,37.92
2023-05-21T15:22:36.605Z,37.70
2023-05-21T15:25:05.407Z,37.50
2023-05-21T15:27:33.399Z,37.54
2023-05-21T15:30:02.268Z,37.77
2023-05-21T15:32:31.794Z,37.61
2023-05-21T15:35:01.387Z,37.48
2023-05-21T15:37:32.209Z,37.58
2023-05-21T15:40:00.396Z,37.40
2023-05-21T15:42:32.079Z,37.51
2023-05-21T15:45:00.148Z,37.39
2023-05-21T15:47:28.986Z,37.47
2023-05-21T15:49:58.989Z,37.38
2023-05-21T15:52:27.016Z,37.51
2023-05-21T15:54:55.693Z,37.51
2023-05-21T15:57:23.917Z,37.58
2023-05-21T15:59:54.831Z,37.40
2023-05-21T16:02:22.835Z,37.73
2023-05-21T16:04:52.192Z,37.69
2023-05-21T16:07:22.436Z,37.66
2023-05-21T16:09:54.769Z,37.95
2023-05-21T16:12:24.837Z,38.02
2023-05-21T16:14:53.001Z,38.14
2023-05-21T16:17:21.179Z,38.21
2023-05-21T16:19:49.930Z,38.47
2023-05-21T16:22:20.251Z,38.52
2023-05-21T16:24:50.581Z,38.62
2023-05-21T16:27:18.572Z,38.92
2023-05-21T16:29:46.533Z,38.67
2023-05-21T16:32:16.139Z,38.97
2023-05-21T16:34:44.369Z,38.81
2023-05-21T16:37:13.146Z,39.07
2023-05-21T16:39:41.326Z,39.10
2023-05-21T16:42:10.735Z,39.03
2023-05-21T16:44:40.163Z,39.03
2023-05-21T16:47:08.215Z,39.04
2023-05-21T16:49:37.012Z,39.20
2023-05-21T16:52:05.414Z,39.21
2023-05-21T16:54:34.120Z,39.43
2023-05-21T16:57:02.988Z,39.46
2023-05-21T16:59:32.341Z,39.52
2023-05-21T17:02:02.587Z,39.25
2023-05-21T17:04:30.807Z,39.61
2023-05-21T17:06:59.606Z,39.53
2023-05-21T17:09:29.744Z,39.58
2023-05-21T17:11:57.736Z,39.60
2023-05-21T17:14:34.432Z,39.58
2023-05-21T17:17:04.454Z,39.72
2023-05-21T17:19:33.344Z,39.58
2023-05-21T17:22:01.462Z,39.84
2023-05-21T17:24:29.549Z,39.89
2023-05-21T17:26:58.314Z,39.85
2023-05-21T17:29:26.444Z,39.80
2023-05-21T17:31:55.473Z,39.74
2023-05-21T17:34:29.383Z,39.91
2023-05-21T17:36:58.537Z,39.92
2023-05-21T17:39:26.730Z,40.06
2023-05-21T17:41:54.749Z,39.79
2023-05-21T17:44:24.437Z,40.08
2023-05-21T17:46:52.717Z,40.12
2023-05-21T17:49:20.827Z,39.88
2023-05-21T17:51:51.437Z,40.14
2023-05-21T17:54:21.273Z,40.10
2023-05-21T17:56:50.102Z,39.82
2023-05-21T17:59:18.078Z,40.17
2023-05-21T18:01:46.145Z,40.04
2023-05-21T18:04:15.823Z,39.93
2023-05-21T18:06:44.248Z,39.80
2023-05-21T18:09:21.620Z,40.15
2023-05-21T18:11:50.554Z,39.91
2023-05-21T18:14:18.512Z,40.01
2023-05-21T18:16:47.484Z,40.00
2023-05-21T18:19:15.606Z,39.71
2023-05-21T18:21:44.451Z,39.90
2023-05-21T18:24:13.830Z,39.89
2023-05-21T18:26:46.340Z,40.00
2023-05-21T18:29:15.115Z,39.69
2023-05-21T18:31:44.561Z,39.93
2023-05-21T18:34:14.812Z,39.94
2023-05-21T18:36:42.931Z,40.08
2023-05-21T18:39:12.292Z,39.86
2023-05-21T18:41:41.923Z,39.96
2023-05-21T18:44:10.085Z,40.03
2023-05-21T18:46:39.464Z,39.96
2023-05-21T18:49:07.675Z,39.90
2023-05-21T18:51:37.814Z,39.93
2023-05-21T18:54:06.011Z,39.98
2023-05-21T18:56:35.155Z,40.03
2023-05-21T18:59:04.509Z,39.97
2023-05-21T19:01:32.930Z,39.96
2023-05-21T19:04:01.830Z,39.92
2023-05-21T19:06:30.294Z,40.18
2023-05-21T19:08:59.171Z,40.05
2023-05-21T19:11:31.069Z,40.22
2023-05-21T19:14:10.884Z,40.00
2023-05-21T19:16:40.395Z,40.34
2023-05-21T19:19:10.989Z,40.01
2023-05-21T19:21:39.100Z,40.14
2023-05-21T19:24:08.179Z,40.21
2023-05-21T19:26:37.147Z,40.32
2023-05-21T19:29:05.175Z,40.31
2023-05-21T19:31:35.557Z,40.18
2023-05-21T19:34:04.518Z,40.47
2023-05-21T19:36:44.450Z,40.49
2023-05-21T19:39:22.722Z,40.23
2023-05-21T19:41:51.741Z,40.55
2023-05-21T19:44:22.702Z,40.46
2023-05-21T19:46:52.186Z,40.47
2023-05-21T19:49:21.426Z,40.60
2023-05-21T19:51:49.740Z,40.48
2023-05-21T19:54:18.570Z,40.47
2023-05-21T19:56:47.766Z,40.48
2023-05-21T19:59:15.932Z,40.43
2023-05-21T20:01:47.874Z,40.72
2023-05-21T20:04:17.617Z,40.41
2023-05-21T20:06:45.562Z,40.56
2023-05-21T20:09:16.820Z,40.48
2023-05-21T20:11:50.865Z,40.54
2023-05-21T20:14:20.856Z,40.56
2023-05-21T20:16:49.576Z,40.75
2023-05-21T20:19:20.620Z,40.69
2023-05-21T20:21:49.618Z,40.96
2023-05-21T20:24:17.604Z,40.76
2023-05-21T20:26:50.862Z,40.83
2023-05-21T20:29:18.817Z,40.86
2023-05-21T20:31:47.133Z,40.96
2023-05-21T20:34:20.678Z,40.96
2023-05-21T20:36:50.056Z,40.71
2023-05-21T20:39:19.990Z,40.91
2023-05-21T20:41:48.406Z,40.86
2023-05-21T20:44:16.812Z,40.62
2023-05-21T20:46:46.441Z,40.69
2023-05-21T20:49:15.221Z,41.04
2023-05-21T20:51:44.211Z,40.73
2023-05-21T20:54:14.151Z,40.80
2023-05-21T20:56:46.800Z,40.84
2023-05-21T20:59:14.914Z,40.78
2023-05-21T21:01:42.986Z,41.05
2023-05-21T21:04:12.390Z,41.00
2023-05-21T21:06:40.926Z,40.98
2023-05-21T21:09:10.643Z,41.03
2023-05-21T21:11:40.909Z,40.90
2023-05-21T21:14:10.717Z,41.06
2023-05-21T21:16:38.987Z,40.75
2023-05-21T21:19:07.099Z,41.14
2023-05-21T21:21:36.009Z,40.89
2023-05-21T21:24:03.983Z,41.06
2023-05-21T21:26:32.843Z,41.15
2023-05-21T21:29:02.176Z,40.91
2023-05-21T21:31:30.601Z,41.21
2023-05-21T21:33:59.726Z,41.22
2023-05-21T21:36:28.972Z,40.78
2023-05-21T21:38:57.838Z,41.02
2023-05-21T21:41:25.981Z,40.93
2023-05-21T21:43:54.062Z,41.23
2023-05-21T21:46:24.310Z,40.86
2023-05-21T21:48:52.577Z,40.98
2023-05-21T21:51:23.538Z,40.99
2023-05-21T21:53:51.746Z,40.88
2023-05-21T21:56:19.693Z,41.31
2023-05-21T21:58:48.543Z,41.29
2023-05-21T22:01:16.647Z,41.10
2023-05-21T22:03:47.274Z,41.10
2023-05-21T22:06:15.359Z,40.98
2023-05-21T22:08:43.470Z,41.30
2023-05-21T22:11:12.323Z,41.27
2023-05-21T22:13:41.661Z,41.25
2023-05-21T22:16:12.632Z,41.07
2023-05-21T22:18:42.179Z,40.90
2023-05-21T22:21:18.638Z,40.97
2023-05-21T22:23:46.713Z,41.01
2023-05-21T22:26:14.995Z,41.25
2023-05-21T22:28:43.130Z,40.90
2023-05-21T22:31:11.312Z,40.89
2023-05-21T22:33:39.413Z,41.08
2023-05-21T22:36:07.905Z,41.38
2023-05-21T22:38:37.775Z,41.00
2023-05-21T22:41:05.984Z,40.86
2023-05-21T22:43:34.564Z,41.22
2023-05-21T22:46:03.116Z,41.18
2023-05-21T22:48:31.636Z,41.09
2023-05-21T22:50:59.647Z,41.05
2023-05-21T22:53:27.739Z,41.26
2023-05-21T22:55:57.110Z,41.10
2023-05-21T22:58:25.222Z,41.23
2023-05-21T23:00:53.293Z,41.23
2023-05-21T23:03:21.369Z,41.34
2023-05-21T23:05:49.487Z,40.95
2023-05-21T23:08:17.689Z,41.34
2023-05-21T23:10:46.116Z,41.32
2023-05-21T23:13:15.582Z,41.12
2023-05-21T23:15:43.958Z,41.30
2023-05-21T23:18:12.630Z,41.30
2023-05-21T23:20:41.928Z,41.41
2023-05-21T23:23:11.267Z,41.38
2023-05-21T23:25:39.451Z,41.06
2023-05-21T23:28:07.534Z,41.45
2023-05-21T23:30:37.025Z,41.45
2023-05-21T23:33:05.211Z,41.19
2023-05-21T23:35:33.777Z,41.08
2023-05-21T23:38:01.778Z,41.11
2023-05-21T23:40:29.703Z,41.36
2023-05-21T23:42:57.743Z,41.25
2023-05-21T23:45:25.977Z,41.30
2023-05-21T23:47:55.397Z,41.14
2023-05-21T23:50:25.043Z,41.55
2023-05-21T23:52:53.119Z,41.58
2023-05-21T23:55:21.249Z,41.51
2023-05-21T23:57:49.219Z,41.37
